createdAt,value
2023-04-15T00:00:32.863Z,1020.82388926
2023-04-15T00:01:32.828Z,1020.82388926
2023-04-15T00:02:33.071Z,1020.82388926
2023-04-15T00:03:33.160Z,1020.722297896
2023-04-15T00:04:32.959Z,1020.82388926
2023-04-15T00:05:32.823Z,1020.9254806240001
2023-04-15T00:06:32.865Z,1020.82388926
2023-04-15T00:07:32.813Z,1021.128663352
2023-04-15T00:08:32.843Z,1020.9254806240001
2023-04-15T00:09:32.814Z,1020.82388926
2023-04-15T00:10:32.846Z,1020.722297896
2023-04-15T00:11:32.822Z,1020.9254806240001
2023-04-15T00:12:32.839Z,1020.9254806240001
2023-04-15T00:13:32.812Z,1020.82388926
2023-04-15T00:14:32.840Z,1020.9254806240001
2023-04-15T00:15:32.827Z,1020.722297896
2023-04-15T00:16:32.835Z,1020.722297896
2023-04-15T00:17:32.851Z,1020.82388926
2023-04-15T00:18:32.868Z,1020.82388926
2023-04-15T00:19:32.805Z,1020.9254806240001
2023-04-15T00:20:32.802Z,1020.9254806240001
2023-04-15T00:21:32.810Z,1020.9254806240001
2023-04-15T00:22:32.827Z,1020.9254806240001
2023-04-15T00:23:32.824Z,1021.027071988
2023-04-15T00:24:32.833Z,1020.722297896
2023-04-15T00:25:32.800Z,1020.9254806240001
2023-04-15T00:26:32.845Z,1020.82388926
2023-04-15T00:27:32.828Z,1021.027071988
2023-04-15T00:28:32.810Z,1020.82388926
2023-04-15T00:29:32.804Z,1020.9254806240001
2023-04-15T00:30:32.854Z,1020.82388926
2023-04-15T00:31:32.851Z,1020.722297896
2023-04-15T00:32:32.826Z,1020.9254806240001
2023-04-15T00:33:32.843Z,1020.82388926
2023-04-15T00:34:32.815Z,1020.9254806240001
2023-04-15T00:35:32.856Z,1020.82388926
2023-04-15T00:36:32.786Z,1020.722297896
2023-04-15T00:37:32.806Z,1020.82388926
2023-04-15T00:38:32.847Z,1020.722297896
2023-04-15T00:39:32.837Z,1020.6207065319999
2023-04-15T00:40:32.819Z,1020.9254806240001
2023-04-15T00:41:32.811Z,1020.722297896
2023-04-15T00:42:32.840Z,1020.722297896
2023-04-15T00:43:32.850Z,1020.722297896
2023-04-15T00:44:32.824Z,1020.9254806240001
2023-04-15T00:45:32.819Z,1020.82388926
2023-04-15T00:46:32.801Z,1020.722297896
2023-04-15T00:47:32.872Z,1020.722297896
2023-04-15T00:48:32.806Z,1020.9254806240001
2023-04-15T00:49:32.832Z,1020.722297896
2023-04-15T00:50:32.835Z,1020.722297896
2023-04-15T00:51:32.846Z,1020.82388926
2023-04-15T00:52:32.805Z,1020.722297896
2023-04-15T00:53:32.830Z,1020.9254806240001
2023-04-15T00:54:32.825Z,1020.82388926
2023-04-15T00:55:32.841Z,1020.82388926
2023-04-15T00:56:32.805Z,1020.9254806240001
2023-04-15T00:57:33.852Z,1020.519115168
2023-04-15T00:58:32.812Z,1020.722297896
2023-04-15T00:59:32.823Z,1020.82388926
2023-04-15T01:00:32.871Z,1020.82388926
2023-04-15T01:01:32.914Z,1020.82388926
2023-04-15T01:02:33.096Z,1020.9254806240001
2023-04-15T01:03:33.025Z,1020.9254806240001
2023-04-15T01:04:32.871Z,1020.6207065319999
2023-04-15T01:05:32.823Z,1020.82388926
2023-04-15T01:06:32.820Z,1020.722297896
2023-04-15T01:07:32.847Z,1020.722297896
2023-04-15T01:08:32.818Z,1020.722297896
2023-04-15T01:09:32.818Z,1020.9254806240001
2023-04-15T01:10:32.811Z,1020.82388926
2023-04-15T01:11:32.822Z,1020.82388926
2023-04-15T01:12:32.785Z,1020.722297896
2023-04-15T01:13:32.804Z,1020.82388926
2023-04-15T01:14:32.800Z,1020.82388926
2023-04-15T01:15:32.818Z,1020.722297896
2023-04-15T01:16:32.970Z,1020.82388926
2023-04-15T01:17:32.834Z,1020.722297896
2023-04-15T01:18:32.829Z,1020.9254806240001
2023-04-15T01:19:32.907Z,1020.722297896
2023-04-15T01:20:32.807Z,1020.82388926
2023-04-15T01:21:32.818Z,1020.82388926
2023-04-15T01:22:32.814Z,1020.9254806240001
2023-04-15T01:23:32.822Z,1020.9254806240001
2023-04-15T01:24:32.837Z,1021.027071988
2023-04-15T01:25:32.856Z,1020.82388926
2023-04-15T01:26:32.870Z,1020.6207065319999
2023-04-15T01:27:32.810Z,1020.6207065319999
2023-04-15T01:28:32.853Z,1021.027071988
2023-04-15T01:29:32.819Z,1020.82388926
2023-04-15T01:30:32.847Z,1020.82388926
2023-04-15T01:31:32.823Z,1020.82388926
2023-04-15T01:32:32.829Z,1020.6207065319999
2023-04-15T01:33:32.817Z,1020.82388926
2023-04-15T01:34:35.539Z,1020.9254806240001
2023-04-15T01:35:32.816Z,1020.9254806240001
2023-04-15T01:36:32.813Z,1020.722297896
2023-04-15T01:37:32.815Z,1020.722297896
2023-04-15T01:38:32.823Z,1020.82388926
2023-04-15T01:39:32.806Z,1020.82388926
2023-04-15T01:40:33.019Z,1021.027071988
2023-04-15T01:41:32.992Z,1020.82388926
2023-04-15T01:42:32.923Z,1020.6207065319999
2023-04-15T01:43:32.914Z,1020.82388926
2023-04-15T01:44:32.966Z,1020.9254806240001
2023-04-15T01:45:32.942Z,1020.9254806240001
2023-04-15T01:46:32.977Z,1020.9254806240001
2023-04-15T01:47:32.942Z,1020.9254806240001
2023-04-15T01:48:32.986Z,1020.82388926
2023-04-15T01:49:32.913Z,1020.519115168
2023-04-15T01:50:32.946Z,1020.722297896
2023-04-15T01:51:32.946Z,1020.722297896
2023-04-15T01:52:32.965Z,1020.82388926
2023-04-15T01:53:32.954Z,1020.9254806240001
2023-04-15T01:54:32.986Z,1020.722297896
2023-04-15T01:55:32.941Z,1020.82388926
2023-04-15T01:56:32.912Z,1020.82388926
2023-04-15T01:57:32.937Z,1020.9254806240001
2023-04-15T01:58:32.838Z,1020.82388926
2023-04-15T01:59:32.801Z,1020.82388926
2023-04-15T02:00:32.868Z,1020.722297896
2023-04-15T02:01:32.891Z,1020.9254806240001
2023-04-15T02:02:32.927Z,1021.128663352
2023-04-15T02:03:32.968Z,1020.9254806240001
2023-04-15T02:04:32.841Z,1020.82388926
2023-04-15T02:05:32.822Z,1020.9254806240001
2023-04-15T02:06:32.873Z,1020.722297896
2023-04-15T02:07:32.814Z,1020.82388926
2023-04-15T02:08:32.798Z,1020.82388926
2023-04-15T02:09:32.809Z,1020.9254806240001
2023-04-15T02:10:32.820Z,1021.027071988
2023-04-15T02:11:32.848Z,1020.9254806240001
2023-04-15T02:12:32.839Z,1020.9254806240001
2023-04-15T02:13:32.826Z,1020.82388926
2023-04-15T02:14:32.813Z,1020.722297896
2023-04-15T02:15:32.815Z,1021.027071988
2023-04-15T02:16:32.862Z,1020.82388926
2023-04-15T02:17:32.841Z,1020.9254806240001
2023-04-15T02:18:32.815Z,1020.722297896
2023-04-15T02:19:32.808Z,1020.722297896
2023-04-15T02:20:32.828Z,1020.82388926
2023-04-15T02:21:32.834Z,1020.722297896
2023-04-15T02:22:32.830Z,1020.722297896
2023-04-15T02:23:32.806Z,1020.722297896
2023-04-15T02:24:32.749Z,1020.82388926
2023-04-15T02:25:32.815Z,1020.722297896
2023-04-15T02:26:32.829Z,1020.6207065319999
2023-04-15T02:27:32.776Z,1020.9254806240001
2023-04-15T02:28:32.811Z,1020.9254806240001
2023-04-15T02:29:32.834Z,1020.722297896
2023-04-15T02:30:32.805Z,1021.027071988
2023-04-15T02:31:32.876Z,1020.9254806240001
2023-04-15T02:32:32.848Z,1020.722297896
2023-04-15T02:33:32.819Z,1020.722297896
2023-04-15T02:34:32.823Z,1020.9254806240001
2023-04-15T02:35:32.811Z,1020.82388926
2023-04-15T02:36:32.811Z,1020.9254806240001
2023-04-15T02:37:32.809Z,1020.82388926
2023-04-15T02:38:32.825Z,1020.82388926
2023-04-15T02:39:32.802Z,1020.82388926
2023-04-15T02:40:32.850Z,1020.9254806240001
2023-04-15T02:41:32.881Z,1021.027071988
2023-04-15T02:42:32.824Z,1020.9254806240001
2023-04-15T02:43:32.789Z,1020.82388926
2023-04-15T02:44:32.825Z,1020.9254806240001
2023-04-15T02:45:32.783Z,1020.9254806240001
2023-04-15T02:46:32.799Z,1020.722297896
2023-04-15T02:47:32.860Z,1021.027071988
2023-04-15T02:48:32.891Z,1020.9254806240001
2023-04-15T02:49:32.804Z,1020.9254806240001
2023-04-15T02:50:32.798Z,1020.9254806240001
2023-04-15T02:51:32.826Z,1020.82388926
2023-04-15T02:52:32.822Z,1021.027071988
2023-04-15T02:53:32.808Z,1020.9254806240001
2023-04-15T02:54:32.785Z,1021.027071988
2023-04-15T02:55:32.798Z,1020.9254806240001
2023-04-15T02:56:32.808Z,1020.9254806240001
2023-04-15T02:57:32.810Z,1021.2302547160001
2023-04-15T02:58:32.803Z,1020.82388926
2023-04-15T02:59:32.809Z,1021.027071988
2023-04-15T03:00:32.870Z,1020.82388926
2023-04-15T03:01:32.866Z,1021.027071988
2023-04-15T03:02:32.963Z,1020.9254806240001
2023-04-15T03:03:32.906Z,1021.128663352
2023-04-15T03:04:32.812Z,1020.82388926
2023-04-15T03:05:32.808Z,1020.722297896
2023-04-15T03:06:32.793Z,1021.128663352
2023-04-15T03:07:32.800Z,1020.82388926
2023-04-15T03:08:32.839Z,1020.722297896
2023-04-15T03:09:32.828Z,1020.9254806240001
2023-04-15T03:10:32.818Z,1020.9254806240001
2023-04-15T03:11:33.662Z,1021.027071988
2023-04-15T03:12:32.958Z,1021.027071988
2023-04-15T03:13:32.826Z,1020.82388926
2023-04-15T03:14:32.801Z,1020.9254806240001
2023-04-15T03:15:32.842Z,1020.9254806240001
2023-04-15T03:16:32.853Z,1021.128663352
2023-04-15T03:17:32.950Z,1020.9254806240001
2023-04-15T03:18:32.774Z,1020.82388926
2023-04-15T03:19:32.917Z,1021.128663352
2023-04-15T03:20:32.865Z,1021.027071988
2023-04-15T03:21:32.833Z,1020.9254806240001
2023-04-15T03:22:32.975Z,1021.027071988
2023-04-15T03:23:32.974Z,1021.128663352
2023-04-15T03:24:32.790Z,1020.82388926
2023-04-15T03:25:32.797Z,1021.128663352
2023-04-15T03:26:32.934Z,1021.027071988
2023-04-15T03:27:32.776Z,1021.128663352
2023-04-15T03:28:32.838Z,1021.2302547160001
2023-04-15T03:29:32.796Z,1021.027071988
2023-04-15T03:30:32.799Z,1021.027071988
2023-04-15T03:31:32.966Z,1021.027071988
2023-04-15T03:32:32.827Z,1020.9254806240001
2023-04-15T03:33:32.964Z,1021.128663352
2023-04-15T03:34:32.928Z,1021.027071988
2023-04-15T03:35:32.940Z,1021.027071988
2023-04-15T03:36:32.982Z,1021.027071988
2023-04-15T03:37:32.892Z,1020.9254806240001
2023-04-15T03:38:32.971Z,1021.027071988
2023-04-15T03:39:32.822Z,1021.027071988
2023-04-15T03:40:32.928Z,1021.128663352
2023-04-15T03:41:33.039Z,1021.2302547160001
2023-04-15T03:42:32.900Z,1020.9254806240001
2023-04-15T03:43:32.900Z,1020.82388926
2023-04-15T03:44:32.877Z,1021.027071988
2023-04-15T03:45:32.872Z,1021.027071988
2023-04-15T03:46:32.933Z,1021.027071988
2023-04-15T03:47:32.909Z,1020.9254806240001
2023-04-15T03:48:32.853Z,1021.2302547160001
2023-04-15T03:49:32.791Z,1021.128663352
2023-04-15T03:50:32.922Z,1021.027071988
2023-04-15T03:51:32.963Z,1021.2302547160001
2023-04-15T03:52:32.812Z,1021.2302547160001
2023-04-15T03:53:32.792Z,1021.33184608
2023-04-15T03:54:32.793Z,1020.9254806240001
2023-04-15T03:55:32.783Z,1021.128663352
2023-04-15T03:56:32.805Z,1021.027071988
2023-04-15T03:57:32.800Z,1020.9254806240001
2023-04-15T03:58:32.805Z,1021.33184608
2023-04-15T03:59:32.818Z,1021.2302547160001
2023-04-15T04:00:32.819Z,1021.2302547160001
2023-04-15T04:01:32.822Z,1021.027071988
2023-04-15T04:02:32.952Z,1021.128663352
2023-04-15T04:03:32.954Z,1020.9254806240001
2023-04-15T04:04:32.937Z,1021.2302547160001
2023-04-15T04:05:32.805Z,1021.33184608
2023-04-15T04:06:32.793Z,1021.33184608
2023-04-15T04:07:32.774Z,1021.2302547160001
2023-04-15T04:08:32.832Z,1021.2302547160001
2023-04-15T04:09:32.813Z,1021.2302547160001
2023-04-15T04:10:32.818Z,1020.9254806240001
2023-04-15T04:11:32.798Z,1021.2302547160001
2023-04-15T04:12:32.798Z,1021.33184608
2023-04-15T04:13:32.867Z,1021.2302547160001
2023-04-15T04:14:32.773Z,1021.128663352
2023-04-15T04:15:32.986Z,1021.2302547160001
2023-04-15T04:16:32.852Z,1021.128663352
2023-04-15T04:17:32.821Z,1021.33184608
2023-04-15T04:18:32.831Z,1021.33184608
2023-04-15T04:19:32.762Z,1021.2302547160001
2023-04-15T04:20:32.816Z,1021.33184608
2023-04-15T04:21:32.803Z,1021.33184608
2023-04-15T04:22:32.880Z,1021.2302547160001
2023-04-15T04:23:32.794Z,1021.128663352
2023-04-15T04:24:32.828Z,1021.027071988
2023-04-15T04:25:32.792Z,1021.2302547160001
2023-04-15T04:26:32.803Z,1021.128663352
2023-04-15T04:27:32.824Z,1021.128663352
2023-04-15T04:28:32.801Z,1021.2302547160001
2023-04-15T04:29:32.802Z,1021.433437444
2023-04-15T04:30:32.788Z,1021.33184608
2023-04-15T04:31:32.827Z,1021.33184608
2023-04-15T04:32:32.837Z,1021.433437444
2023-04-15T04:33:32.785Z,1021.33184608
2023-04-15T04:34:32.805Z,1021.433437444
2023-04-15T04:35:32.805Z,1021.433437444
2023-04-15T04:36:32.780Z,1021.433437444
2023-04-15T04:37:32.765Z,1021.5350288080001
2023-04-15T04:38:32.781Z,1021.5350288080001
2023-04-15T04:39:32.842Z,1021.33184608
2023-04-15T04:40:32.811Z,1021.5350288080001
2023-04-15T04:41:32.784Z,1021.433437444
2023-04-15T04:42:32.781Z,1021.433437444
2023-04-15T04:43:32.848Z,1021.5350288080001
2023-04-15T04:44:32.772Z,1021.433437444
2023-04-15T04:45:32.866Z,1021.433437444
2023-04-15T04:46:32.789Z,1021.433437444
2023-04-15T04:47:32.854Z,1021.33184608
2023-04-15T04:48:32.971Z,1021.433437444
2023-04-15T04:49:32.777Z,1021.5350288080001
2023-04-15T04:50:32.789Z,1021.636620172
2023-04-15T04:51:32.786Z,1021.33184608
2023-04-15T04:52:32.767Z,1021.433437444
2023-04-15T04:53:32.804Z,1021.5350288080001
2023-04-15T04:54:32.805Z,1021.5350288080001
2023-04-15T04:55:32.814Z,1021.33184608
2023-04-15T04:56:32.764Z,1021.5350288080001
2023-04-15T04:57:32.779Z,1021.33184608
2023-04-15T04:58:32.787Z,1021.433437444
2023-04-15T04:59:32.797Z,1021.433437444
2023-04-15T05:00:32.743Z,1021.433437444
2023-04-15T05:01:32.810Z,1021.5350288080001
2023-04-15T05:02:32.954Z,1021.636620172
2023-04-15T05:03:32.970Z,1021.5350288080001
2023-04-15T05:04:32.764Z,1021.433437444
2023-04-15T05:05:32.810Z,1021.33184608
2023-04-15T05:06:32.831Z,1021.433437444
2023-04-15T05:07:32.803Z,1021.33184608
2023-04-15T05:08:32.802Z,1021.33184608
2023-04-15T05:09:32.799Z,1021.5350288080001
2023-04-15T05:10:32.805Z,1021.5350288080001
2023-04-15T05:11:32.815Z,1021.5350288080001
2023-04-15T05:12:32.783Z,1021.2302547160001
2023-04-15T05:13:32.794Z,1021.636620172
2023-04-15T05:14:32.790Z,1021.433437444
2023-04-15T05:15:32.824Z,1021.433437444
2023-04-15T05:16:32.776Z,1021.433437444
2023-04-15T05:17:32.805Z,1021.5350288080001
2023-04-15T05:18:32.786Z,1021.636620172
2023-04-15T05:19:32.813Z,1021.433437444
2023-04-15T05:20:32.764Z,1021.5350288080001
2023-04-15T05:21:32.793Z,1021.5350288080001
2023-04-15T05:22:32.790Z,1021.5350288080001
2023-04-15T05:23:32.820Z,1021.433437444
2023-04-15T05:24:32.776Z,1021.433437444
2023-04-15T05:25:32.769Z,1021.433437444
2023-04-15T05:26:32.789Z,1021.33184608
2023-04-15T05:27:32.792Z,1021.433437444
2023-04-15T05:28:32.948Z,1021.433437444
2023-04-15T05:29:32.927Z,1021.5350288080001
2023-04-15T05:30:32.764Z,1021.433437444
2023-04-15T05:31:32.841Z,1021.5350288080001
2023-04-15T05:32:32.857Z,1021.5350288080001
2023-04-15T05:33:32.826Z,1021.433437444
2023-04-15T05:34:32.756Z,1021.433437444
2023-04-15T05:35:32.771Z,1021.636620172
2023-04-15T05:36:32.799Z,1021.5350288080001
2023-04-15T05:37:32.796Z,1021.433437444
2023-04-15T05:38:32.799Z,1021.433437444
2023-04-15T05:39:32.792Z,1021.5350288080001
2023-04-15T05:40:32.788Z,1021.5350288080001
2023-04-15T05:41:32.804Z,1021.5350288080001
2023-04-15T05:42:32.782Z,1021.636620172
2023-04-15T05:43:32.801Z,1021.738211536
2023-04-15T05:44:32.814Z,1021.5350288080001
2023-04-15T05:45:32.796Z,1021.636620172
2023-04-15T05:46:32.778Z,1021.636620172
2023-04-15T05:47:32.819Z,1021.5350288080001
2023-04-15T05:48:32.831Z,1021.636620172
2023-04-15T05:49:32.778Z,1021.738211536
2023-04-15T05:50:32.813Z,1021.433437444
2023-04-15T05:51:32.774Z,1021.636620172
2023-04-15T05:52:32.814Z,1021.738211536
2023-04-15T05:53:32.785Z,1021.636620172
2023-04-15T05:54:32.764Z,1021.5350288080001
2023-04-15T05:55:32.772Z,1021.5350288080001
2023-04-15T05:56:32.803Z,1021.738211536
2023-04-15T05:57:32.783Z,1021.636620172
2023-04-15T05:58:32.797Z,1021.738211536
2023-04-15T05:59:32.770Z,1021.5350288080001
2023-04-15T06:00:32.795Z,1021.738211536
2023-04-15T06:01:32.794Z,1021.8398029000001
2023-04-15T06:02:32.855Z,1021.8398029000001
2023-04-15T06:03:32.953Z,1021.738211536
2023-04-15T06:04:32.955Z,1021.636620172
2023-04-15T06:05:32.792Z,1021.738211536
2023-04-15T06:06:32.793Z,1021.738211536
2023-04-15T06:07:32.788Z,1021.9075304759999
2023-04-15T06:08:32.788Z,1022.00912184
2023-04-15T06:09:32.796Z,1022.1107132039999
2023-04-15T06:10:32.771Z,1021.8398029000001
2023-04-15T06:11:32.817Z,1021.9075304759999
2023-04-15T06:12:32.787Z,1022.00912184
2023-04-15T06:13:32.787Z,1022.1107132039999
2023-04-15T06:14:32.797Z,1022.00912184
2023-04-15T06:15:32.771Z,1021.9075304759999
2023-04-15T06:16:32.832Z,1021.8398029000001
2023-04-15T06:17:32.804Z,1021.8398029000001
2023-04-15T06:18:32.836Z,1021.8398029000001
2023-04-15T06:19:32.793Z,1021.738211536
2023-04-15T06:20:32.854Z,1021.8398029000001
2023-04-15T06:21:32.777Z,1021.9075304759999
2023-04-15T06:22:32.771Z,1021.9075304759999
2023-04-15T06:23:32.752Z,1021.738211536
2023-04-15T06:24:32.766Z,1021.9075304759999
2023-04-15T06:25:32.791Z,1021.9075304759999
2023-04-15T06:26:32.805Z,1021.9075304759999
2023-04-15T06:27:32.815Z,1021.8398029000001
2023-04-15T06:28:32.800Z,1021.738211536
2023-04-15T06:29:32.774Z,1021.8398029000001
2023-04-15T06:30:32.791Z,1021.636620172
2023-04-15T06:31:32.842Z,1021.8398029000001
2023-04-15T06:32:32.854Z,1021.8398029000001
2023-04-15T06:33:32.768Z,1021.738211536
2023-04-15T06:34:32.778Z,1021.636620172
2023-04-15T06:35:32.811Z,1021.738211536
2023-04-15T06:36:32.776Z,1021.9075304759999
2023-04-15T06:37:32.775Z,1021.8398029000001
2023-04-15T06:38:32.776Z,1021.8398029000001
2023-04-15T06:39:32.780Z,1021.9075304759999
2023-04-15T06:40:32.803Z,1021.9075304759999
2023-04-15T06:41:32.800Z,1021.738211536
2023-04-15T06:42:32.810Z,1021.9075304759999
2023-04-15T06:43:32.817Z,1022.00912184
2023-04-15T06:44:33.862Z,1021.8398029000001
2023-04-15T06:45:32.825Z,1021.8398029000001
2023-04-15T06:46:32.821Z,1021.2302547160001
2023-04-15T06:47:32.817Z,1021.128663352
2023-04-15T06:48:32.772Z,1021.33184608
2023-04-15T06:49:32.752Z,1021.9075304759999
2023-04-15T06:50:32.759Z,1022.00912184
2023-04-15T06:51:32.777Z,1021.8398029000001
2023-04-15T06:52:32.836Z,1022.00912184
2023-04-15T06:53:32.870Z,1021.9075304759999
2023-04-15T06:54:32.818Z,1022.00912184
2023-04-15T06:55:32.796Z,1021.9075304759999
2023-04-15T06:56:32.756Z,1021.9075304759999
2023-04-15T06:57:34.898Z,1022.00912184
2023-04-15T06:58:32.780Z,1022.00912184
2023-04-15T06:59:32.814Z,1022.313895932
2023-04-15T07:00:32.787Z,1022.415487296
2023-04-15T07:01:32.786Z,1022.313895932
2023-04-15T07:02:32.843Z,1022.313895932
2023-04-15T07:03:33.072Z,1022.2123045679999
2023-04-15T07:04:32.851Z,1022.00912184
2023-04-15T07:05:32.769Z,1022.1107132039999
2023-04-15T07:06:32.792Z,1022.00912184
2023-04-15T07:07:32.783Z,1022.2123045679999
2023-04-15T07:08:32.769Z,1022.2123045679999
2023-04-15T07:09:32.750Z,1022.1107132039999
2023-04-15T07:10:32.798Z,1022.00912184
2023-04-15T07:11:32.802Z,1022.313895932
2023-04-15T07:12:32.770Z,1022.1107132039999
2023-04-15T07:13:32.778Z,1022.2123045679999
2023-04-15T07:14:32.776Z,1022.1107132039999
2023-04-15T07:15:32.793Z,1022.1107132039999
2023-04-15T07:16:32.795Z,1022.1107132039999
2023-04-15T07:17:32.866Z,1022.1107132039999
2023-04-15T07:18:32.789Z,1022.1107132039999
2023-04-15T07:19:32.834Z,1022.415487296
2023-04-15T07:20:32.763Z,1022.1107132039999
2023-04-15T07:21:32.838Z,1022.2123045679999
2023-04-15T07:22:32.768Z,1022.1107132039999
2023-04-15T07:23:32.795Z,1022.2123045679999
2023-04-15T07:24:32.850Z,1022.1107132039999
2023-04-15T07:25:32.803Z,1022.2123045679999
2023-04-15T07:26:32.752Z,1022.2123045679999
2023-04-15T07:27:32.754Z,1022.313895932
2023-04-15T07:28:32.765Z,1022.313895932
2023-04-15T07:29:32.753Z,1022.5170786599999
2023-04-15T07:30:32.749Z,1022.415487296
2023-04-15T07:31:32.858Z,1022.720261388
2023-04-15T07:32:32.745Z,1022.5170786599999
2023-04-15T07:33:32.770Z,1022.313895932
2023-04-15T07:34:32.881Z,1022.8218527519999
2023-04-15T07:35:32.788Z,1022.5170786599999
2023-04-15T07:36:32.801Z,1022.415487296
2023-04-15T07:37:32.809Z,1022.313895932
2023-04-15T07:38:32.776Z,1022.313895932
2023-04-15T07:39:32.795Z,1022.313895932
2023-04-15T07:40:32.848Z,1022.1107132039999
2023-04-15T07:41:32.761Z,1022.415487296
2023-04-15T07:42:32.803Z,1022.313895932
2023-04-15T07:43:32.759Z,1022.313895932
2023-04-15T07:44:32.766Z,1022.313895932
2023-04-15T07:45:32.759Z,1022.313895932
2023-04-15T07:46:32.894Z,1022.2123045679999
2023-04-15T07:47:32.824Z,1022.1107132039999
2023-04-15T07:48:33.701Z,1022.313895932
2023-04-15T07:49:32.804Z,1022.2123045679999
2023-04-15T07:50:32.789Z,1022.415487296
2023-04-15T07:51:32.756Z,1022.313895932
2023-04-15T07:52:32.759Z,1022.2123045679999
2023-04-15T07:53:32.787Z,1022.2123045679999
2023-04-15T07:54:32.780Z,1022.2123045679999
2023-04-15T07:55:32.766Z,1022.313895932
2023-04-15T07:56:32.795Z,1022.415487296
2023-04-15T07:57:32.818Z,1022.415487296
2023-04-15T07:58:32.811Z,1022.2123045679999
2023-04-15T07:59:32.778Z,1022.415487296
2023-04-15T08:00:32.855Z,1022.313895932
2023-04-15T08:01:32.760Z,1022.313895932
2023-04-15T08:02:32.842Z,1022.1107132039999
2023-04-15T08:03:32.824Z,1022.313895932
2023-04-15T08:04:33.025Z,1022.415487296
2023-04-15T08:05:32.771Z,1022.415487296
2023-04-15T08:06:32.829Z,1022.2123045679999
2023-04-15T08:07:32.776Z,1022.415487296
2023-04-15T08:08:32.793Z,1022.2123045679999
2023-04-15T08:09:32.769Z,1022.2123045679999
2023-04-15T08:10:32.767Z,1022.313895932
2023-04-15T08:11:32.769Z,1022.415487296
2023-04-15T08:12:32.806Z,1022.313895932
2023-04-15T08:13:32.774Z,1022.415487296
2023-04-15T08:14:32.836Z,1022.2123045679999
2023-04-15T08:15:32.806Z,1022.313895932
2023-04-15T08:16:32.954Z,1022.313895932
2023-04-15T08:17:32.817Z,1022.415487296
2023-04-15T08:18:32.770Z,1022.313895932
2023-04-15T08:19:32.752Z,1022.415487296
2023-04-15T08:20:32.782Z,1022.5170786599999
2023-04-15T08:21:32.775Z,1022.2123045679999
2023-04-15T08:22:32.795Z,1022.2123045679999
2023-04-15T08:23:32.760Z,1022.313895932
2023-04-15T08:24:32.735Z,1022.313895932
2023-04-15T08:25:32.761Z,1022.415487296
2023-04-15T08:26:32.750Z,1022.415487296
2023-04-15T08:27:32.792Z,1022.313895932
2023-04-15T08:28:32.778Z,1022.313895932
2023-04-15T08:29:32.760Z,1022.313895932
2023-04-15T08:30:32.748Z,1022.2123045679999
2023-04-15T08:31:32.808Z,1022.313895932
2023-04-15T08:32:32.783Z,1022.415487296
2023-04-15T08:33:32.778Z,1022.313895932
2023-04-15T08:34:32.737Z,1022.313895932
2023-04-15T08:35:32.865Z,1022.313895932
2023-04-15T08:36:32.828Z,1022.2123045679999
2023-04-15T08:37:32.794Z,1022.2123045679999
2023-04-15T08:38:32.753Z,1022.5170786599999
2023-04-15T08:39:32.765Z,1022.313895932
2023-04-15T08:40:32.784Z,1022.2123045679999
2023-04-15T08:41:32.774Z,1022.313895932
2023-04-15T08:42:32.747Z,1022.2123045679999
2023-04-15T08:43:32.801Z,1022.415487296
2023-04-15T08:44:32.762Z,1022.313895932
2023-04-15T08:45:32.777Z,1022.415487296
2023-04-15T08:46:32.775Z,1022.5170786599999
2023-04-15T08:47:32.826Z,1022.2123045679999
2023-04-15T08:48:32.784Z,1022.618670024
2023-04-15T08:49:32.776Z,1022.5170786599999
2023-04-15T08:50:32.769Z,1022.415487296
2023-04-15T08:51:32.784Z,1022.5170786599999
2023-04-15T08:52:32.746Z,1022.415487296
2023-04-15T08:53:32.811Z,1022.618670024
2023-04-15T08:54:32.785Z,1022.618670024
2023-04-15T08:55:32.854Z,1022.618670024
2023-04-15T08:56:33.016Z,1022.618670024
2023-04-15T08:57:32.784Z,1022.618670024
2023-04-15T08:58:32.743Z,1022.618670024
2023-04-15T08:59:32.777Z,1022.5170786599999
2023-04-15T09:00:32.746Z,1022.415487296
2023-04-15T09:01:32.876Z,1022.5170786599999
2023-04-15T09:02:32.908Z,1022.5170786599999
2023-04-15T09:03:32.978Z,1022.5170786599999
2023-04-15T09:04:32.758Z,1022.5170786599999
2023-04-15T09:05:32.769Z,1022.5170786599999
2023-04-15T09:06:32.764Z,1022.415487296
2023-04-15T09:07:32.793Z,1022.5170786599999
2023-04-15T09:08:32.789Z,1022.618670024
2023-04-15T09:09:32.771Z,1022.5170786599999
2023-04-15T09:10:32.798Z,1022.618670024
2023-04-15T09:11:32.767Z,1022.5170786599999
2023-04-15T09:12:32.802Z,1022.720261388
2023-04-15T09:13:32.844Z,1022.5170786599999
2023-04-15T09:14:32.746Z,1022.618670024
2023-04-15T09:15:32.768Z,1022.2123045679999
2023-04-15T09:16:32.804Z,1022.415487296
2023-04-15T09:17:32.784Z,1022.720261388
2023-04-15T09:18:32.764Z,1022.5170786599999
2023-04-15T09:19:32.792Z,1022.618670024
2023-04-15T09:20:32.780Z,1022.415487296
2023-04-15T09:21:32.888Z,1022.5170786599999
2023-04-15T09:22:32.774Z,1022.313895932
2023-04-15T09:23:32.818Z,1022.5170786599999
2023-04-15T09:24:32.768Z,1022.618670024
2023-04-15T09:25:34.950Z,1022.415487296
2023-04-15T09:26:32.783Z,1022.618670024
2023-04-15T09:27:32.762Z,1022.5170786599999
2023-04-15T09:28:32.751Z,1022.5170786599999
2023-04-15T09:29:32.771Z,1022.618670024
2023-04-15T09:30:32.822Z,1022.618670024
2023-04-15T09:31:32.739Z,1022.720261388
2023-04-15T09:32:32.817Z,1022.618670024
2023-04-15T09:33:32.803Z,1022.415487296
2023-04-15T09:34:32.755Z,1022.415487296
2023-04-15T09:35:32.789Z,1022.618670024
2023-04-15T09:36:32.740Z,1022.5170786599999
2023-04-15T09:37:32.742Z,1022.618670024
2023-04-15T09:38:32.753Z,1022.618670024